KAKR/AKR METAR and TAF weather

Enter ICAO airport designator
Station Type Date Time Source
KAKR METAR 2022/01/27 22:54 UTC NOAA

KAKR 272254Z AUTO 22006KT 10SM OVC021 M03/M07 A3010 RMK AO2 SNE23 SLP211 P0000 T10281072


Station Type Date Time Source
KAKR Decoded METAR 2022/01/27 22:54 UTC NOAA

AKRON FULTON INTERNATIONAL, OH, United States (KAKR) 41-02N 081-28W 363M
Jan 27, 2022 - 05:54 PM EST / 2022.01.27 2254 UTC
Wind: from the SW (220 degrees) at 7 MPH (6 KT):0
Visibility: 10 mile(s):0
Sky conditions: overcast
Precipitation last hour: A trace
Temperature: 27.0 F (-2.8 C)
Windchill: 19 F (-7 C):1
Dew Point: 19.0 F (-7.2 C)
Relative Humidity: 71%
Pressure (altimeter): 30.1 in. Hg (1019 hPa)
ob: KAKR 272254Z AUTO 22006KT 10SM OVC021 M03/M07 A3010 RMK AO2 SNE23 SLP211 P0000 T10281072
cycle: 23

Station Type Date Time Source
KAKR TAF UTC NOAA

Error!

Example: see airport list